Time;durP1;ratioP1;P1;durP2;ratioP2;P2;SDS_P1;SDS_P2;PMS_P1;PMS_P2;Temp;Humidity;BMP_temperature;BMP_pressure;BME280_temperature;BME280_humidity;BME280_pressure;Samples;Min_cycle;Max_cycle;Signal;HPM_P1;HPM_P2
2024/04/06 00:02:30;;;;;;;11.20;4.30;;;;;;;12.85;100.00;101028.97;10460733;28;20045;-77
2024/04/06 00:07:30;;;;;;;8.35;4.05;;;;;;;12.78;100.00;101024.38;10460037;28;20442;-76
2024/04/06 00:12:31;;;;;;;9.02;4.65;;;;;;;12.69;100.00;101025.63;10461566;28;20029;-78
2024/04/06 00:17:32;;;;;;;21.10;6.60;;;;;;;12.60;100.00;101026.88;10461529;28;20132;-77
2024/04/06 00:22:33;;;;;;;8.63;5.18;;;;;;;12.53;100.00;101031.47;10459596;28;20037;-77
2024/04/06 00:27:33;;;;;;;23.48;5.50;;;;;;;12.56;100.00;101015.59;10460857;28;20036;-74
2024/04/06 00:32:33;;;;;;;15.40;5.68;;;;;;;12.61;100.00;101017.69;10459659;28;20354;-77
2024/04/06 00:37:34;;;;;;;15.57;5.60;;;;;;;12.69;100.00;101003.91;10461387;28;20055;-76
2024/04/06 00:42:35;;;;;;;12.90;6.55;;;;;;;12.76;100.00;100993.88;10460806;28;20123;-76
2024/04/06 00:47:35;;;;;;;19.33;5.90;;;;;;;12.88;100.00;100996.78;10459326;28;20036;-77
2024/04/06 00:52:37;;;;;;;10.68;5.88;;;;;;;12.95;100.00;100977.75;10440786;28;20079;-75
2024/04/06 00:57:37;;;;;;;13.10;4.03;;;;;;;13.00;100.00;100977.97;10440926;28;20453;-79
2024/04/06 01:02:38;;;;;;;10.15;4.60;;;;;;;12.98;100.00;100967.28;10457093;28;20059;-76
2024/04/06 01:07:42;;;;;;;5.63;4.10;;;;;;;12.97;100.00;100962.06;10459958;28;20025;-75
2024/04/06 01:12:43;;;;;;;13.35;5.72;;;;;;;12.95;100.00;100948.69;10459827;28;20039;-73
2024/04/06 01:17:44;;;;;;;13.18;4.65;;;;;;;12.90;100.00;100951.22;10474859;28;20053;-77
2024/04/06 01:22:44;;;;;;;11.30;5.38;;;;;;;12.89;100.00;100954.13;10459220;28;20033;-76
2024/04/06 01:27:45;;;;;;;6.18;4.32;;;;;;;12.86;100.00;100951.84;10457148;28;20392;-76
2024/04/06 01:32:47;;;;;;;10.30;4.60;;;;;;;12.91;100.00;100957.47;10458649;28;20502;-76
2024/04/06 01:37:48;;;;;;;7.78;6.07;;;;;;;12.89;100.00;100956.84;10440135;28;20029;-76
2024/04/06 01:42:48;;;;;;;9.68;5.30;;;;;;;12.82;100.00;100967.72;10457426;28;20153;-77
2024/04/06 01:47:49;;;;;;;6.63;4.03;;;;;;;12.83;100.00;100965.84;10455866;28;20040;-77
2024/04/06 01:52:49;;;;;;;6.65;4.95;;;;;;;12.89;100.00;100952.28;10457450;28;20460;-77
2024/04/06 01:57:50;;;;;;;9.45;5.30;;;;;;;13.07;100.00;100962.47;10455463;28;20051;-77
2024/04/06 02:02:50;;;;;;;6.90;4.25;;;;;;;13.11;100.00;100963.69;10456671;28;20044;-75
2024/04/06 02:07:50;;;;;;;8.68;4.40;;;;;;;13.17;100.00;100957.41;10455718;28;20029;-75
2024/04/06 02:12:54;;;;;;;9.20;5.28;;;;;;;13.18;100.00;100941.97;10456022;28;20510;-75
2024/04/06 02:17:54;;;;;;;10.07;4.93;;;;;;;13.23;100.00;100953.84;10456889;28;20079;-76
2024/04/06 02:22:55;;;;;;;4.85;4.38;;;;;;;13.18;100.00;100931.91;10455382;28;20037;-77
2024/04/06 02:27:55;;;;;;;6.22;5.57;;;;;;;13.14;100.00;100936.09;10455376;28;20453;-77
2024/04/06 02:32:56;;;;;;;4.72;4.28;;;;;;;13.10;100.00;100936.75;10460788;28;20036;-76
2024/04/06 02:37:57;;;;;;;9.60;6.15;;;;;;;13.11;100.00;100941.13;10468600;28;20036;-76
2024/04/06 02:42:57;;;;;;;14.18;6.70;;;;;;;13.03;100.00;100915.00;10470103;28;20173;-77
2024/04/06 02:47:58;;;;;;;12.43;6.85;;;;;;;13.07;100.00;100910.81;10468452;28;20118;-77
2024/04/06 02:52:58;;;;;;;9.60;6.32;;;;;;;13.05;100.00;100910.22;10470020;28;20044;-75
2024/04/06 02:57:58;;;;;;;4.93;4.38;;;;;;;13.12;100.00;100921.06;10470608;28;20207;-76
2024/04/06 03:02:59;;;;;;;9.48;4.68;;;;;;;13.13;100.00;100926.28;10470429;28;20189;-78
2024/04/06 03:08:00;;;;;;;5.85;5.22;;;;;;;13.14;100.00;100921.66;10470480;28;20095;-76
2024/04/06 03:13:00;;;;;;;6.22;5.72;;;;;;;13.18;100.00;100921.03;10471253;28;20029;-74
2024/04/06 03:18:00;;;;;;;8.25;5.10;;;;;;;13.16;100.00;100912.25;10472319;28;20080;-75
2024/04/06 03:23:04;;;;;;;8.57;5.28;;;;;;;13.21;100.00;100926.06;10456386;28;20032;-76
2024/04/06 03:28:05;;;;;;;9.88;6.85;;;;;;;13.12;100.00;100915.63;10491771;28;20093;-78
2024/04/06 03:33:06;;;;;;;11.77;7.10;;;;;;;13.12;100.00;100915.63;10473099;28;20040;-78
2024/04/06 03:38:06;;;;;;;10.45;5.72;;;;;;;13.20;100.00;100899.06;10473652;28;20044;-75
2024/04/06 03:43:06;;;;;;;7.75;6.68;;;;;;;13.18;100.00;100885.69;10476579;28;20359;-75
2024/04/06 03:48:07;;;;;;;10.15;5.90;;;;;;;13.12;100.00;100864.78;10484801;28;20070;-76
2024/04/06 03:53:07;;;;;;;5.28;4.78;;;;;;;13.12;100.00;100862.06;10462681;28;20040;-75
2024/04/06 03:58:08;;;;;;;7.07;4.85;;;;;;;13.09;100.00;100848.91;10462390;28;20475;-77
2024/04/06 04:03:08;;;;;;;5.55;3.88;;;;;;;13.17;100.00;100856.81;10463595;28;20128;-74
2024/04/06 04:08:09;;;;;;;4.93;3.33;;;;;;;13.14;100.00;100840.09;10463268;28;20097;-74
2024/04/06 04:13:11;;;;;;;3.90;3.40;;;;;;;13.16;100.00;100827.97;10460267;28;20033;-75
2024/04/06 04:18:12;;;;;;;4.85;3.95;;;;;;;13.23;100.00;100812.44;10461275;28;20420;-74
2024/04/06 04:23:12;;;;;;;13.13;4.55;;;;;;;13.19;100.00;100818.53;10460556;28;20029;-74
2024/04/06 04:28:13;;;;;;;4.78;4.30;;;;;;;13.18;100.00;100823.16;10477093;28;20025;-76
2024/04/06 04:33:13;;;;;;;4.25;3.85;;;;;;;13.23;100.00;100814.34;10442803;28;20361;-75
2024/04/06 04:38:13;;;;;;;4.40;3.08;;;;;;;13.14;100.00;100816.44;10460061;28;20044;-76
2024/04/06 04:43:14;;;;;;;5.07;4.07;;;;;;;13.22;100.00;100808.06;10459788;28;20041;-75
2024/04/06 04:48:14;;;;;;;4.53;4.18;;;;;;;13.23;100.00;100784.41;10459344;28;20119;-74
2024/04/06 04:53:15;;;;;;;4.53;3.33;;;;;;;13.16;100.00;100770.88;10457704;28;20392;-73
2024/04/06 04:58:15;;;;;;;3.53;3.20;;;;;;;13.18;100.00;100786.97;10457054;28;20029;-74
2024/04/06 05:03:16;;;;;;;4.00;3.63;;;;;;;13.23;100.00;100777.09;10459057;28;20048;-74
2024/04/06 05:08:16;;;;;;;5.55;4.18;;;;;;;13.19;100.00;100769.59;10458484;28;20107;-74
2024/04/06 05:13:17;;;;;;;6.78;3.72;;;;;;;13.14;100.00;100772.13;10457948;28;20041;-75
2024/04/06 05:18:19;;;;;;;4.22;3.45;;;;;;;13.21;100.00;100790.09;10475065;28;20044;-75
2024/04/06 05:23:19;;;;;;;4.15;3.75;;;;;;;13.20;100.00;100812.88;10441044;28;20029;-75
2024/04/06 05:28:21;;;;;;;4.63;4.03;;;;;;;13.24;100.00;100805.09;10458483;28;20021;-75
2024/04/06 05:33:22;;;;;;;5.97;3.72;;;;;;;13.25;100.00;100804.94;10456242;28;20079;-73
2024/04/06 05:38:24;;;;;;;3.35;2.97;;;;;;;13.29;100.00;100790.91;10456263;28;20077;-73
2024/04/06 05:43:25;;;;;;;4.35;3.25;;;;;;;13.42;100.00;100812.59;10457030;28;20090;-74
2024/04/06 05:48:25;;;;;;;8.50;3.75;;;;;;;13.47;100.00;100819.03;10458893;28;20063;-75
2024/04/06 05:53:25;;;;;;;3.60;3.30;;;;;;;13.50;100.00;100817.78;10458303;28;20056;-75
2024/04/06 05:58:26;;;;;;;3.05;2.83;;;;;;;13.61;100.00;100824.41;10459954;28;20025;-74
2024/04/06 06:03:26;;;;;;;8.52;3.50;;;;;;;14.17;100.00;100818.13;10439587;28;20503;-73
2024/04/06 06:08:26;;;;;;;4.57;3.72;;;;;;;14.86;100.00;100811.53;10458329;28;20103;-75
2024/04/06 06:13:27;;;;;;;3.38;3.08;;;;;;;15.47;100.00;100815.13;10456690;28;20070;-75
2024/04/06 06:18:27;;;;;;;3.38;3.03;;;;;;;16.24;100.00;100815.22;10456742;28;20465;-75
2024/04/06 06:23:28;;;;;;;5.55;3.13;;;;;;;16.90;100.00;100796.72;10471835;28;20068;-73
2024/04/06 06:28:28;;;;;;;4.35;3.60;;;;;;;16.76;100.00;100794.53;10455784;28;20368;-72
2024/04/06 06:33:28;;;;;;;4.18;3.78;;;;;;;16.93;100.00;100796.25;10454727;28;20112;-74
2024/04/06 06:38:29;;;;;;;2.53;2.30;;;;;;;17.18;100.00;100786.91;10455856;28;20041;-74
2024/04/06 06:43:29;;;;;;;7.20;2.80;;;;;;;18.08;100.00;100769.59;10454666;28;20036;-74
2024/04/06 06:48:30;;;;;;;3.28;3.08;;;;;;;18.15;100.00;100758.44;10456517;28;20039;-73
2024/04/06 06:53:30;;;;;;;5.57;2.42;;;;;;;17.87;100.00;100749.28;10455688;28;20052;-73
2024/04/06 06:58:31;;;;;;;2.20;2.10;;;;;;;17.17;100.00;100746.94;10456653;28;20472;-73
2024/04/06 07:03:32;;;;;;;2.88;2.67;;;;;;;17.36;100.00;100751.13;10455610;28;20045;-72
2024/04/06 07:08:32;;;;;;;3.90;2.97;;;;;;;18.55;100.00;100732.69;10458050;28;20037;-73
2024/04/06 07:13:32;;;;;;;3.22;2.90;;;;;;;19.19;100.00;100741.16;10454061;28;20056;-71
2024/04/06 07:18:33;;;;;;;6.43;3.25;;;;;;;19.87;100.00;100732.44;10455456;28;20107;-69
2024/04/06 07:23:34;;;;;;;2.72;2.50;;;;;;;20.16;100.00;100731.00;10430063;28;20373;-72
2024/04/06 07:28:36;;;;;;;3.33;2.40;;;;;;;19.39;100.00;100713.06;10461606;28;20036;-71
2024/04/06 07:33:38;;;;;;;8.75;2.65;;;;;;;18.94;100.00;100732.66;10461658;28;20342;-71
2024/04/06 07:38:38;;;;;;;8.60;3.33;;;;;;;18.96;100.00;100738.72;10462531;28;20508;-72
2024/04/06 07:43:38;;;;;;;5.65;3.22;;;;;;;20.16;100.00;100716.41;10461349;28;20036;-72
2024/04/06 07:48:39;;;;;;;3.40;2.17;;;;;;;20.91;100.00;100711.56;10462183;28;20448;-72
2024/04/06 07:53:39;;;;;;;2.60;2.40;;;;;;;21.57;100.00;100703.44;10461832;28;20033;-71
2024/04/06 07:58:40;;;;;;;3.78;2.40;;;;;;;21.86;100.00;100713.03;10461742;28;20084;-70
2024/04/06 08:03:40;;;;;;;2.78;2.50;;;;;;;22.01;100.00;100713.03;10460335;28;20136;-70
2024/04/06 08:08:40;;;;;;;3.63;2.05;;;;;;;21.32;100.00;100706.16;10459620;28;20029;-72
2024/04/06 08:13:41;;;;;;;9.25;3.47;;;;;;;20.72;100.00;100700.22;10460741;28;20048;-72
2024/04/06 08:18:41;;;;;;;7.75;1.92;;;;;;;20.25;100.00;100683.75;10461466;28;20076;-71
2024/04/06 08:23:42;;;;;;;1.67;1.58;;;;;;;19.78;100.00;100676.31;10461291;28;20033;-70
2024/04/06 08:28:42;;;;;;;9.10;2.63;;;;;;;19.61;100.00;100682.75;10458949;28;20036;-71
2024/04/06 08:33:42;;;;;;;2.22;2.13;;;;;;;19.55;100.00;100683.00;10441822;28;20060;-72
2024/04/06 08:38:43;;;;;;;3.30;1.90;;;;;;;19.59;100.00;100673.13;10460541;28;20451;-71
2024/04/06 08:43:44;;;;;;;2.78;2.20;;;;;;;19.59;100.00;100682.22;10460545;28;20037;-69
2024/04/06 08:48:45;;;;;;;2.58;2.35;;;;;;;19.79;100.00;100662.34;10458514;28;20216;-71
2024/04/06 08:53:45;;;;;;;4.20;2.63;;;;;;;19.87;100.00;100652.75;10442299;28;20025;-70
2024/04/06 08:58:46;;;;;;;1.67;1.58;;;;;;;19.98;100.00;100629.75;10441664;28;20429;-70
2024/04/06 09:03:47;;;;;;;3.58;2.15;;;;;;;20.18;100.00;100627.09;10458397;28;20037;-71
2024/04/06 09:08:48;;;;;;;7.45;3.13;;;;;;;20.35;100.00;100621.38;10463395;28;20029;-70
2024/04/06 09:13:48;;;;;;;1.70;1.65;;;;;;;20.79;100.00;100614.66;10458288;28;20071;-71
2024/04/06 09:18:48;;;;;;;1.90;1.80;;;;;;;20.92;100.00;100627.88;10457398;28;20064;-71
2024/04/06 09:23:50;;;;;;;2.25;2.08;;;;;;;20.86;100.00;100623.47;10475376;28;20053;-73
2024/04/06 09:28:51;;;;;;;2.00;1.90;;;;;;;20.99;100.00;100620.19;10461144;28;20314;-76
2024/04/06 09:33:56;;;;;;;1.55;1.30;;;;;;;21.51;100.00;100610.84;10461169;28;20044;-74
2024/04/06 09:38:56;;;;;;;2.15;1.45;;;;;;;22.40;93.84;100633.25;10461494;28;20348;-75
2024/04/06 09:43:58;;;;;;;1.88;1.77;;;;;;;22.83;100.00;100622.50;10460620;28;20029;-74
2024/04/06 09:48:58;;;;;;;6.50;2.35;;;;;;;23.01;100.00;100634.03;10444889;28;20025;-76
2024/04/06 09:53:59;;;;;;;3.20;1.90;;;;;;;22.89;83.71;100629.63;10462815;28;20077;-74
2024/04/06 09:58:59;;;;;;;2.60;1.83;;;;;;;22.80;94.97;100616.72;10460485;28;20036;-75
2024/04/06 10:04:00;;;;;;;1.10;1.10;;;;;;;22.82;82.95;100626.38;10457955;28;20053;-75
2024/04/06 10:09:00;;;;;;;3.78;2.53;;;;;;;22.89;86.63;100601.19;10460702;28;20037;-67
2024/04/06 10:14:03;;;;;;;1.30;1.25;;;;;;;23.50;100.00;100591.59;10460552;28;20021;-82
2024/04/06 10:19:03;;;;;;;5.68;2.58;;;;;;;23.73;96.62;100585.28;10457375;28;20052;-70
2024/04/06 10:24:08;;;;;;;1.77;1.50;;;;;;;23.35;82.03;100568.50;10455572;28;20053;-71
2024/04/06 10:29:08;;;;;;;1.73;1.63;;;;;;;24.04;70.05;100555.34;10460655;28;20117;-74
2024/04/06 10:34:09;;;;;;;1.92;1.63;;;;;;;24.78;68.26;100533.53;10460473;28;20024;-72
2024/04/06 10:39:09;;;;;;;1.70;1.60;;;;;;;25.02;63.46;100552.00;10459253;28;20025;-73
2024/04/06 10:44:10;;;;;;;4.03;1.83;;;;;;;24.90;66.09;100546.94;10460167;28;20375;-73
2024/04/06 10:49:11;;;;;;;5.15;1.52;;;;;;;25.27;59.53;100554.38;10458751;28;20400;-73
2024/04/06 10:54:12;;;;;;;3.03;2.15;;;;;;;24.97;57.07;100533.50;10462024;28;20039;-73
2024/04/06 10:59:12;;;;;;;0.93;0.93;;;;;;;25.09;53.87;100538.59;10466290;28;20032;-72
2024/04/06 11:04:13;;;;;;;1.52;1.52;;;;;;;24.65;54.58;100542.63;10465533;28;20055;-74
2024/04/06 11:09:13;;;;;;;3.45;1.70;;;;;;;24.59;50.80;100549.34;10466416;28;20040;-75
2024/04/06 11:14:13;;;;;;;3.58;1.83;;;;;;;24.83;51.65;100524.34;10465900;28;20484;-76
2024/04/06 11:19:17;;;;;;;2.53;2.17;;;;;;;25.43;52.15;100541.06;10466073;28;20131;-73
2024/04/06 11:24:17;;;;;;;1.10;1.10;;;;;;;26.09;52.01;100563.88;10468568;28;20068;-73
2024/04/06 11:29:17;;;;;;;4.95;1.92;;;;;;;26.20;47.53;100548.66;10466541;28;20025;-73
2024/04/06 11:34:18;;;;;;;6.63;1.98;;;;;;;25.96;51.83;100562.75;10467139;28;20028;-74
2024/04/06 11:39:18;;;;;;;2.20;1.60;;;;;;;25.68;47.81;100570.22;10466429;28;20471;-75
2024/04/06 11:44:19;;;;;;;1.88;1.13;;;;;;;25.87;46.13;100574.88;10464905;28;20039;-75
2024/04/06 11:49:19;;;;;;;1.77;1.67;;;;;;;25.63;49.67;100575.88;10464113;28;20025;-74
2024/04/06 11:54:20;;;;;;;1.88;1.65;;;;;;;26.03;47.31;100586.50;10461144;28;20021;-73
2024/04/06 11:59:21;;;;;;;1.35;1.25;;;;;;;26.01;47.28;100588.78;10460644;28;20036;-74
2024/04/06 12:04:21;;;;;;;2.50;1.60;;;;;;;25.90;44.38;100582.59;10459447;28;20108;-75
2024/04/06 12:09:22;;;;;;;1.50;1.40;;;;;;;25.33;47.37;100574.47;10458116;28;20033;-74
2024/04/06 12:14:22;;;;;;;1.52;1.20;;;;;;;25.02;45.95;100588.84;10460163;28;20408;-71
2024/04/06 12:19:25;;;;;;;2.95;2.05;;;;;;;24.89;46.98;100584.06;10459068;28;20408;-67
2024/04/06 12:24:27;;;;;;;1.00;1.00;;;;;;;25.77;47.98;100588.94;10459860;28;20084;-77
2024/04/06 12:29:28;;;;;;;1.80;1.65;;;;;;;26.24;48.39;100595.25;10460989;28;20021;-78
2024/04/06 12:34:28;;;;;;;3.40;1.92;;;;;;;26.69;41.93;100607.31;10459269;28;20568;-79
2024/04/06 12:39:29;;;;;;;2.97;1.33;;;;;;;26.52;39.67;100591.31;10460158;28;20143;-77
2024/04/06 12:44:30;;;;;;;2.83;1.60;;;;;;;25.96;40.24;100589.69;10460374;28;20028;-79
2024/04/06 12:49:31;;;;;;;1.80;1.70;;;;;;;26.31;41.53;100587.31;10457750;28;20156;-77
2024/04/06 12:54:32;;;;;;;1.00;1.00;;;;;;;26.60;39.45;100586.97;10458929;28;20033;-76
2024/04/06 12:59:32;;;;;;;7.00;2.05;;;;;;;26.53;39.96;100584.63;10459624;28;20112;-73
2024/04/06 13:04:33;;;;;;;1.48;1.45;;;;;;;26.37;40.97;100584.09;10458321;28;20044;-76
2024/04/06 13:09:33;;;;;;;7.90;1.25;;;;;;;26.25;40.93;100569.13;10458941;28;20489;-77
2024/04/06 13:14:33;;;;;;;1.83;1.73;;;;;;;26.21;40.31;100566.97;10378917;28;20504;-79
2024/04/06 13:19:34;;;;;;;1.65;1.42;;;;;;;26.24;41.65;100582.19;10458388;28;20377;-76
2024/04/06 13:24:34;;;;;;;3.22;1.90;;;;;;;26.25;39.84;100564.38;10458601;28;20182;-75
2024/04/06 13:29:35;;;;;;;2.22;1.75;;;;;;;25.87;40.82;100555.47;10458456;28;20032;-75
2024/04/06 13:34:35;;;;;;;3.22;1.50;;;;;;;26.04;40.14;100565.94;10456456;28;20045;-75
2024/04/06 13:39:36;;;;;;;3.38;1.70;;;;;;;25.99;44.27;100564.09;10458395;28;20025;-76
2024/04/06 13:44:36;;;;;;;1.13;1.13;;;;;;;26.12;41.88;100556.91;10457899;28;20471;-73
2024/04/06 13:49:37;;;;;;;1.35;1.30;;;;;;;26.14;40.88;100547.13;10458191;28;20029;-75
2024/04/06 13:54:37;;;;;;;1.58;1.45;;;;;;;25.78;40.97;100557.28;10458616;28;20028;-76
2024/04/06 13:59:38;;;;;;;2.50;2.22;;;;;;;25.63;41.93;100556.47;10457516;28;20361;-78
2024/04/06 14:04:38;;;;;;;3.50;1.63;;;;;;;25.75;39.58;100556.78;10456745;28;20083;-75
2024/04/06 14:09:39;;;;;;;3.15;1.88;;;;;;;25.67;39.36;100559.44;10455811;28;20115;-74
2024/04/06 14:14:39;;;;;;;9.88;2.30;;;;;;;25.49;39.83;100552.84;10456346;28;20040;-75
2024/04/06 14:19:40;;;;;;;3.78;1.88;;;;;;;25.63;40.52;100531.50;10454057;28;20040;-73
2024/04/06 14:24:40;;;;;;;1.55;1.45;;;;;;;25.51;41.14;100542.28;10471163;28;20063;-73
2024/04/06 14:29:42;;;;;;;6.35;2.10;;;;;;;25.22;41.25;100567.50;10455626;28;20041;-74
2024/04/06 14:34:43;;;;;;;7.93;2.00;;;;;;;25.32;44.02;100561.75;10438410;28;20041;-76
2024/04/06 14:39:43;;;;;;;1.65;1.55;;;;;;;25.29;41.55;100556.81;10455440;28;20025;-75
2024/04/06 14:44:43;;;;;;;1.80;1.48;;;;;;;24.94;42.07;100525.00;10455421;28;20091;-75
2024/04/06 14:49:44;;;;;;;2.25;1.75;;;;;;;24.49;42.80;100530.13;10471458;28;20029;-75
2024/04/06 14:54:45;;;;;;;5.20;2.08;;;;;;;23.93;44.74;100550.22;10470866;28;20120;-71
2024/04/06 14:59:46;;;;;;;1.60;1.50;;;;;;;23.92;47.26;100590.88;10454670;28;20028;-72
2024/04/06 15:04:46;;;;;;;12.85;2.33;;;;;;;23.78;45.26;100604.59;10438506;28;20087;-72
2024/04/06 15:09:47;;;;;;;2.50;1.67;;;;;;;23.57;47.51;100605.91;10437213;28;20049;-72
2024/04/06 15:14:47;;;;;;;1.15;1.10;;;;;;;23.10;47.28;100605.50;10436837;28;20059;-73
2024/04/06 15:19:48;;;;;;;10.70;2.47;;;;;;;23.10;48.22;100627.59;10456079;28;20052;-72
2024/04/06 15:24:48;;;;;;;3.65;1.80;;;;;;;23.02;49.38;100628.19;10452881;28;20040;-73
2024/04/06 15:29:49;;;;;;;1.52;1.33;;;;;;;22.96;50.23;100613.59;10454248;28;20021;-72
2024/04/06 15:34:49;;;;;;;3.85;2.25;;;;;;;22.89;51.41;100615.81;10452305;28;20044;-73
2024/04/06 15:39:50;;;;;;;6.40;1.98;;;;;;;22.90;51.29;100613.88;10454073;28;20082;-73
2024/04/06 15:44:50;;;;;;;8.55;2.53;;;;;;;22.78;52.75;100617.00;10460854;28;20037;-72
2024/04/06 15:49:51;;;;;;;2.38;1.98;;;;;;;22.56;52.65;100591.75;10444778;28;20523;-73
2024/04/06 15:54:51;;;;;;;4.55;2.28;;;;;;;22.43;52.31;100612.50;10461848;28;20040;-72
2024/04/06 15:59:51;;;;;;;8.02;2.42;;;;;;;22.38;52.87;100640.13;10461877;28;20079;-72
2024/04/06 16:04:52;;;;;;;25.83;3.25;;;;;;;22.26;53.00;100637.69;10461963;28;20045;-72
2024/04/06 16:09:52;;;;;;;1.73;1.63;;;;;;;22.21;53.27;100654.28;10461139;28;20123;-73
2024/04/06 16:14:52;;;;;;;11.88;2.45;;;;;;;22.21;55.28;100648.75;10461585;28;20452;-73
2024/04/06 16:19:53;;;;;;;3.25;2.25;;;;;;;22.05;54.19;100631.41;10462001;28;20453;-71
2024/04/06 16:24:53;;;;;;;2.20;1.88;;;;;;;21.97;54.19;100635.56;10460162;28;20033;-72
2024/04/06 16:29:54;;;;;;;11.65;2.78;;;;;;;21.96;54.66;100644.13;10461735;28;20368;-71
2024/04/06 16:34:54;;;;;;;5.00;1.90;;;;;;;21.86;54.37;100666.16;10459950;28;20041;-73
2024/04/06 16:39:54;;;;;;;8.45;3.28;;;;;;;21.94;54.61;100655.41;10459799;28;20190;-74
2024/04/06 16:44:55;;;;;;;5.53;3.28;;;;;;;21.83;56.87;100662.06;10461064;28;20115;-72
2024/04/06 16:49:55;;;;;;;2.80;1.95;;;;;;;21.76;57.55;100670.63;10462139;28;20036;-73
2024/04/06 16:54:56;;;;;;;19.80;3.15;;;;;;;21.58;56.95;100655.47;10465301;28;20041;-74
2024/04/06 16:59:56;;;;;;;2.08;1.92;;;;;;;21.50;60.42;100645.00;10466154;28;20453;-72
2024/04/06 17:04:56;;;;;;;7.72;2.30;;;;;;;21.39;57.58;100672.84;10466311;28;20159;-72
2024/04/06 17:09:57;;;;;;;9.55;2.95;;;;;;;21.28;57.28;100663.69;10469058;28;20036;-73
2024/04/06 17:14:57;;;;;;;7.05;2.50;;;;;;;21.24;58.71;100659.84;10468172;28;20029;-73
2024/04/06 17:19:59;;;;;;;3.08;2.75;;;;;;;21.16;59.40;100652.97;10465009;28;20045;-72
2024/04/06 17:25:01;;;;;;;1.63;1.52;;;;;;;21.11;63.56;100659.28;10449754;28;20041;-74
2024/04/06 17:30:02;;;;;;;1.38;1.23;;;;;;;20.93;62.52;100654.31;10464365;28;20028;-72
2024/04/06 17:35:04;;;;;;;2.55;2.28;;;;;;;20.95;64.24;100645.78;10462849;28;20346;-73
2024/04/06 17:40:05;;;;;;;2.83;2.17;;;;;;;20.89;64.76;100653.19;10458331;28;20033;-74
2024/04/06 17:45:06;;;;;;;6.93;2.85;;;;;;;20.74;64.05;100656.75;10459811;28;20029;-74
2024/04/06 17:50:07;;;;;;;1.80;1.58;;;;;;;20.64;63.40;100668.56;10460529;28;20052;-73
2024/04/06 17:55:07;;;;;;;3.92;1.63;;;;;;;20.59;63.60;100648.47;10459453;28;20048;-72
2024/04/06 18:00:10;;;;;;;2.38;1.88;;;;;;;20.46;64.17;100644.25;10458208;28;20028;-73
2024/04/06 18:05:10;;;;;;;14.30;3.25;;;;;;;20.33;64.50;100647.50;10457964;28;20037;-74
2024/04/06 18:10:11;;;;;;;4.68;2.65;;;;;;;20.23;65.02;100662.03;10474979;28;20141;-74
2024/04/06 18:15:11;;;;;;;10.98;3.38;;;;;;;20.24;65.10;100668.38;10456220;28;20033;-73
2024/04/06 18:20:11;;;;;;;5.38;1.77;;;;;;;20.14;65.05;100669.13;10456673;28;20049;-73
2024/04/06 18:25:12;;;;;;;7.78;1.85;;;;;;;20.00;65.05;100678.94;10456541;28;20119;-71
2024/04/06 18:30:12;;;;;;;5.43;2.30;;;;;;;19.96;65.40;100673.16;10455417;28;20028;-73
2024/04/06 18:35:13;;;;;;;3.08;2.00;;;;;;;19.90;66.88;100664.03;10457176;28;20036;-72
2024/04/06 18:40:14;;;;;;;7.15;2.92;;;;;;;19.83;66.63;100663.44;10454890;28;20041;-73
2024/04/06 18:45:14;;;;;;;6.45;2.20;;;;;;;19.78;67.29;100682.63;10457310;28;20032;-72
2024/04/06 18:50:14;;;;;;;3.55;2.83;;;;;;;19.65;68.61;100681.16;10456580;28;20025;-72
2024/04/06 18:55:15;;;;;;;5.25;2.38;;;;;;;19.68;69.45;100693.56;10456372;28;20025;-74
2024/04/06 19:00:15;;;;;;;8.35;3.00;;;;;;;19.58;68.52;100694.28;10455822;28;20037;-73
2024/04/06 19:05:16;;;;;;;14.63;2.05;;;;;;;19.57;69.69;100698.13;10438763;28;20057;-73
2024/04/06 19:10:16;;;;;;;3.10;1.92;;;;;;;19.48;69.01;100689.53;10453248;28;20037;-74
2024/04/06 19:15:17;;;;;;;2.70;2.03;;;;;;;19.47;75.50;100709.84;10456281;28;20033;-73
2024/04/06 19:20:17;;;;;;;2.33;2.22;;;;;;;19.39;74.47;100706.75;10463681;28;20045;-72
2024/04/06 19:25:18;;;;;;;2.67;1.92;;;;;;;19.37;71.89;100698.78;10463820;28;20106;-73
2024/04/06 19:30:18;;;;;;;11.60;2.65;;;;;;;19.44;73.97;100706.81;10463727;28;20025;-74
2024/04/06 19:35:19;;;;;;;4.45;2.30;;;;;;;19.34;72.33;100693.00;10463963;28;20169;-73
2024/04/06 19:40:19;;;;;;;7.38;3.20;;;;;;;19.27;78.12;100699.53;10479121;28;20029;-75
2024/04/06 19:45:20;;;;;;;14.13;2.90;;;;;;;19.16;82.14;100705.16;10462073;28;20123;-72
2024/04/06 19:50:20;;;;;;;7.85;2.67;;;;;;;19.05;75.49;100709.72;10461013;28;20035;-72
2024/04/06 19:55:21;;;;;;;3.42;2.25;;;;;;;18.99;84.05;100713.50;10460170;28;20061;-73
2024/04/06 20:00:21;;;;;;;1.98;1.88;;;;;;;18.75;80.70;100719.25;10460107;28;20102;-72
2024/04/06 20:05:22;;;;;;;2.63;2.35;;;;;;;18.75;84.59;100696.50;10460792;28;20067;-71
2024/04/06 20:10:22;;;;;;;3.17;2.88;;;;;;;18.78;83.87;100718.75;10459615;28;20029;-73
2024/04/06 20:15:23;;;;;;;4.22;3.47;;;;;;;18.77;84.35;100727.25;10460354;28;20036;-73
2024/04/06 20:20:23;;;;;;;9.52;2.83;;;;;;;18.70;83.44;100721.09;10458927;28;20075;-73
2024/04/06 20:30:43;;;;;;;4.40;2.50;;;;;;;18.65;79.87;100712.81;10459133;28;20388;-73
2024/04/06 20:35:43;;;;;;;2.60;2.40;;;;;;;18.53;81.08;100715.66;10458476;28;20033;-73
2024/04/06 20:40:44;;;;;;;5.72;3.42;;;;;;;18.43;83.25;100721.03;10458474;28;20032;-72
2024/04/06 20:45:47;;;;;;;10.35;3.22;;;;;;;18.38;85.08;100730.03;10459942;28;20063;-74
2024/04/06 20:50:48;;;;;;;5.82;3.03;;;;;;;18.29;85.78;100724.13;10458122;28;20021;-73
2024/04/06 20:55:49;;;;;;;8.70;3.28;;;;;;;18.29;90.49;100693.16;10458465;28;20409;-73
2024/04/06 21:00:49;;;;;;;5.50;3.17;;;;;;;18.14;88.79;100696.50;10459223;28;20029;-73
2024/04/06 21:05:49;;;;;;;2.83;2.63;;;;;;;18.06;91.97;100710.63;10460222;28;20119;-72
2024/04/06 21:10:50;;;;;;;4.40;3.88;;;;;;;17.86;91.95;100703.78;10458585;28;20407;-73
2024/04/06 21:15:50;;;;;;;5.10;3.28;;;;;;;17.76;94.05;100667.97;10459306;28;20087;-71
2024/04/06 21:20:50;;;;;;;9.52;4.40;;;;;;;17.61;95.69;100656.78;10456346;28;20053;-72
2024/04/06 21:25:51;;;;;;;3.40;2.80;;;;;;;17.48;97.27;100663.44;10457877;28;20060;-71
2024/04/06 21:30:51;;;;;;;3.67;3.38;;;;;;;17.39;99.15;100668.50;10455657;28;20045;-71
2024/04/06 21:35:52;;;;;;;14.10;4.38;;;;;;;17.29;99.98;100689.38;10457881;28;20162;-70
2024/04/06 21:40:52;;;;;;;4.50;3.22;;;;;;;17.18;100.00;100693.84;10457387;28;20041;-72
2024/04/06 21:45:52;;;;;;;11.25;2.95;;;;;;;17.26;100.00;100666.09;10457193;28;20029;-70
2024/04/06 21:50:54;;;;;;;8.25;3.00;;;;;;;17.26;99.55;100718.09;10456175;28;20037;-70
2024/04/06 21:55:55;;;;;;;8.48;2.53;;;;;;;17.28;100.00;100720.56;10471688;28;20036;-71
2024/04/06 22:00:56;;;;;;;9.18;2.75;;;;;;;17.30;100.00;100718.44;10456836;28;20053;-71
2024/04/06 22:05:57;;;;;;;5.97;2.13;;;;;;;17.19;98.05;100704.53;10457464;28;20048;-71
2024/04/06 22:10:59;;;;;;;3.55;2.10;;;;;;;17.33;98.83;100677.72;10456056;28;20036;-71
2024/04/06 22:16:00;;;;;;;9.63;2.85;;;;;;;17.32;98.90;100648.66;10470736;28;20025;-70
2024/04/06 22:21:00;;;;;;;16.33;2.53;;;;;;;17.30;100.00;100660.97;10454108;28;20041;-71
2024/04/06 22:26:01;;;;;;;10.18;3.63;;;;;;;17.35;98.78;100661.84;10456659;28;20036;-70
2024/04/06 22:31:01;;;;;;;6.60;3.78;;;;;;;17.38;97.26;100687.91;10454617;28;20045;-69
2024/04/06 22:36:02;;;;;;;7.88;2.25;;;;;;;17.37;96.30;100714.44;10455176;28;20107;-73
2024/04/06 22:41:03;;;;;;;7.38;2.80;;;;;;;17.38;96.99;100716.09;10454381;28;20033;-72
2024/04/06 22:46:03;;;;;;;9.75;3.30;;;;;;;17.36;97.49;100745.66;10440350;28;20025;-73
2024/04/06 22:51:04;;;;;;;3.10;2.60;;;;;;;17.46;97.66;100735.97;10441027;28;20463;-72
2024/04/06 22:56:04;;;;;;;2.15;1.67;;;;;;;17.42;98.61;100710.97;10447708;28;20087;-73